Time;durP1;ratioP1;P1;durP2;ratioP2;P2;SDS_P1;SDS_P2;PMS_P1;PMS_P2;Temp;Humidity;BMP_temperature;BMP_pressure;BME280_temperature;BME280_humidity;BME280_pressure;Samples;Min_cycle;Max_cycle;Signal;HPM_P1;HPM_P2
2023/03/12 00:01:16;;;;;;;9.43;2.73;;;25.80;72.30;;;;;;5011017;28;20185;-67
2023/03/12 00:03:44;;;;;;;11.53;2.87;;;25.90;72.30;;;;;;4993978;28;20185;-78
2023/03/12 00:06:12;;;;;;;9.50;2.20;;;26.00;72.50;;;;;;4992172;28;20178;-69
2023/03/12 00:08:40;;;;;;;10.47;3.03;;;26.10;71.70;;;;;;4998973;28;20568;-67
2023/03/12 00:11:10;;;;;;;7.30;2.50;;;26.00;71.70;;;;;;4995102;28;20260;-72
2023/03/12 00:13:38;;;;;;;10.73;2.87;;;26.10;71.60;;;;;;5010601;28;20229;-67
2023/03/12 00:16:08;;;;;;;9.17;2.83;;;26.00;71.40;;;;;;5014511;28;20235;-73
2023/03/12 00:18:35;;;;;;;12.97;2.70;;;26.00;71.90;;;;;;4985202;28;20222;-76
2023/03/12 00:21:03;;;;;;;8.10;2.93;;;26.20;71.40;;;;;;4989055;28;20165;-75
2023/03/12 00:23:31;;;;;;;10.13;2.83;;;26.20;71.40;;;;;;5014307;28;20316;-69
2023/03/12 00:26:11;;;;;;;11.03;2.63;;;26.10;71.50;;;;;;5014350;28;20180;-73
2023/03/12 00:28:38;;;;;;;7.73;2.40;;;26.00;71.90;;;;;;5014860;28;20181;-77
2023/03/12 00:31:18;;;;;;;7.87;2.73;;;26.00;72.00;;;;;;5000139;28;20193;-67
2023/03/12 00:33:48;;;;;;;14.43;2.60;;;26.40;71.10;;;;;;4999983;28;20188;-70
2023/03/12 00:36:16;;;;;;;6.00;1.90;;;26.50;70.80;;;;;;4996825;28;20179;-68
2023/03/12 00:38:44;;;;;;;6.40;2.20;;;26.30;70.80;;;;;;4992031;28;20214;-69
2023/03/12 00:41:11;;;;;;;8.07;2.43;;;26.40;71.60;;;;;;4994425;28;20220;-72
2023/03/12 00:43:39;;;;;;;8.53;2.70;;;26.50;70.60;;;;;;4994374;28;20226;-69
2023/03/12 00:46:06;;;;;;;14.10;3.10;;;26.70;69.80;;;;;;4993870;28;20170;-69
2023/03/12 00:48:34;;;;;;;8.00;2.67;;;26.80;69.40;;;;;;4993866;28;20189;-68
2023/03/12 00:51:01;;;;;;;10.13;2.70;;;26.60;70.00;;;;;;4991746;28;20189;-73
2023/03/12 00:53:28;;;;;;;10.07;3.07;;;27.00;69.30;;;;;;5013571;28;20567;-72
2023/03/12 00:55:55;;;;;;;8.23;2.73;;;27.30;68.10;;;;;;5009836;28;20190;-70
2023/03/12 00:58:23;;;;;;;8.60;2.70;;;27.20;67.50;;;;;;4993498;28;20217;-69
2023/03/12 01:00:50;;;;;;;9.83;2.43;;;27.00;68.70;;;;;;4993426;28;20217;-68
2023/03/12 01:03:18;;;;;;;8.97;2.33;;;27.20;68.40;;;;;;4993932;28;20525;-66
2023/03/12 01:05:48;;;;;;;12.03;3.07;;;27.20;67.90;;;;;;4993752;28;20202;-65
2023/03/12 01:08:15;;;;;;;10.47;2.90;;;26.90;68.40;;;;;;4993443;28;20193;-68
2023/03/12 01:10:43;;;;;;;8.97;2.57;;;26.70;69.60;;;;;;4993772;28;20190;-68
2023/03/12 01:13:10;;;;;;;10.17;3.00;;;26.70;69.10;;;;;;4975862;28;20588;-70
2023/03/12 01:15:37;;;;;;;13.93;2.97;;;26.60;69.20;;;;;;4992984;28;20186;-74
2023/03/12 01:18:05;;;;;;;8.83;2.73;;;26.40;69.90;;;;;;4989127;28;20206;-71
2023/03/12 01:20:32;;;;;;;12.80;3.90;;;26.30;70.40;;;;;;4999146;28;20647;-68
2023/03/12 01:23:00;;;;;;;12.23;3.20;;;26.00;71.10;;;;;;5010314;28;20177;-68
2023/03/12 01:25:27;;;;;;;11.03;3.13;;;26.30;70.60;;;;;;5003761;28;20190;-70
2023/03/12 01:27:54;;;;;;;6.93;2.80;;;26.80;69.20;;;;;;5000501;28;20265;-66
2023/03/12 01:30:22;;;;;;;12.93;3.00;;;26.80;69.00;;;;;;4993864;28;20771;-72
2023/03/12 01:32:51;;;;;;;11.03;3.40;;;26.60;69.40;;;;;;4993126;28;20198;-67
2023/03/12 01:35:18;;;;;;;9.93;3.03;;;26.50;69.70;;;;;;4998279;28;20632;-67
2023/03/12 01:37:46;;;;;;;12.50;3.00;;;26.40;69.60;;;;;;5001510;28;20248;-71
2023/03/12 01:40:19;;;;;;;7.53;2.83;;;26.40;69.70;;;;;;4999762;28;20192;-69
2023/03/12 01:42:57;;;;;;;11.80;3.00;;;26.50;69.30;;;;;;5013185;28;20173;-66
2023/03/12 01:45:55;;;;;;;11.47;2.90;;;26.80;68.20;;;;;;5007462;28;20177;-68
2023/03/12 01:48:23;;;;;;;7.90;2.73;;;27.20;67.20;;;;;;5008723;28;20180;-69
2023/03/12 01:50:50;;;;;;;10.30;2.90;;;27.20;66.70;;;;;;4992054;28;20193;-70
2023/03/12 01:53:18;;;;;;;10.13;3.10;;;27.30;66.50;;;;;;4998998;28;20536;-66
2023/03/12 01:55:45;;;;;;;9.47;3.00;;;27.30;67.40;;;;;;5010859;28;20275;-67
2023/03/12 01:58:13;;;;;;;9.00;2.50;;;27.00;67.60;;;;;;4996462;28;20280;-67
2023/03/12 02:00:40;;;;;;;7.20;3.00;;;26.80;67.60;;;;;;4992850;28;20189;-66
2023/03/12 02:03:09;;;;;;;8.13;3.13;;;27.00;67.90;;;;;;5009374;28;20653;-65
2023/03/12 02:05:53;;;;;;;8.53;2.37;;;27.00;67.80;;;;;;4992758;28;20188;-72
2023/03/12 02:08:22;;;;;;;8.63;2.90;;;27.50;66.40;;;;;;5004512;28;20181;-75
2023/03/12 02:10:50;;;;;;;10.53;2.90;;;27.70;65.70;;;;;;4993098;28;20213;-69
2023/03/12 02:13:18;;;;;;;6.17;2.50;;;27.70;64.60;;;;;;5004596;28;20225;-69
2023/03/12 02:15:46;;;;;;;10.83;2.90;;;27.30;65.90;;;;;;4997879;28;20596;-75
2023/03/12 02:18:17;;;;;;;8.47;2.90;;;27.30;66.20;;;;;;5000638;28;20205;-76
2023/03/12 02:21:08;;;;;;;7.50;2.77;;;27.50;66.10;;;;;;4980574;28;20181;-73
2023/03/12 02:23:43;;;;;;;8.67;2.90;;;27.90;65.00;;;;;;4995191;28;20279;-71
2023/03/12 02:26:11;;;;;;;7.83;2.70;;;28.00;64.50;;;;;;5007208;28;20608;-77
2023/03/12 02:28:44;;;;;;;8.90;2.40;;;27.70;65.10;;;;;;5011701;28;20184;-69
2023/03/12 02:31:20;;;;;;;13.53;2.73;;;27.40;65.60;;;;;;5007083;28;20635;-68
2023/03/12 02:33:47;;;;;;;9.87;2.73;;;27.90;64.90;;;;;;5012555;28;20173;-75
2023/03/12 02:36:14;;;;;;;8.07;2.83;;;28.20;63.90;;;;;;5012387;28;20613;-76
2023/03/12 02:38:49;;;;;;;9.43;2.50;;;28.20;64.10;;;;;;5010082;28;20597;-71
2023/03/12 02:41:41;;;;;;;9.87;2.67;;;28.60;62.60;;;;;;4994858;28;20173;-71
2023/03/12 02:44:28;;;;;;;7.73;2.27;;;28.80;62.00;;;;;;4994563;28;20186;-69
2023/03/12 02:46:57;;;;;;;10.77;2.60;;;28.50;61.40;;;;;;4992202;28;20688;-67
2023/03/12 02:49:28;;;;;;;8.90;2.47;;;28.30;62.90;;;;;;4975322;28;20170;-69
2023/03/12 02:51:56;;;;;;;10.83;2.50;;;28.00;63.20;;;;;;4991246;28;20235;-70
2023/03/12 02:54:24;;;;;;;8.80;1.90;;;27.60;64.30;;;;;;4989817;28;20182;-73
2023/03/12 02:56:52;;;;;;;11.13;2.43;;;27.10;65.60;;;;;;4992564;28;20192;-76
2023/03/12 02:59:24;;;;;;;12.10;2.60;;;27.30;66.30;;;;;;4978914;28;20217;-75
2023/03/12 03:02:00;;;;;;;9.70;2.97;;;27.70;65.30;;;;;;4989738;28;20230;-72
2023/03/12 03:04:30;;;;;;;8.23;2.57;;;27.70;65.50;;;;;;4974114;28;20175;-68
2023/03/12 03:06:57;;;;;;;15.93;2.60;;;27.80;65.40;;;;;;4995395;28;20194;-75
2023/03/12 03:09:25;;;;;;;11.07;2.37;;;28.20;64.10;;;;;;4998931;28;20189;-74
2023/03/12 03:11:52;;;;;;;11.17;2.73;;;27.80;64.60;;;;;;5002081;28;20290;-74
2023/03/12 03:14:20;;;;;;;10.53;2.50;;;27.80;64.50;;;;;;4993352;28;20367;-76
2023/03/12 03:16:47;;;;;;;8.90;2.83;;;28.10;64.00;;;;;;5005267;28;20193;-80
2023/03/12 03:19:14;;;;;;;10.00;2.57;;;28.10;63.00;;;;;;5004079;28;20231;-78
2023/03/12 03:21:42;;;;;;;9.97;2.13;;;28.80;62.20;;;;;;4997121;28;20190;-77
2023/03/12 03:24:10;;;;;;;8.00;2.47;;;29.30;61.00;;;;;;4999581;28;20284;-78
2023/03/12 03:26:37;;;;;;;9.40;2.20;;;29.20;60.00;;;;;;4996141;28;20659;-76
2023/03/12 03:29:05;;;;;;;8.50;2.00;;;28.70;61.60;;;;;;4989464;28;20248;-68
2023/03/12 03:31:32;;;;;;;7.63;2.20;;;28.40;62.70;;;;;;4989724;28;20273;-74
2023/03/12 03:33:59;;;;;;;12.30;2.83;;;29.00;61.70;;;;;;4999123;28;20534;-75
2023/03/12 03:36:27;;;;;;;8.23;2.17;;;29.30;61.40;;;;;;4999421;28;20191;-71
2023/03/12 03:38:55;;;;;;;8.53;2.30;;;28.90;61.90;;;;;;5006765;28;20205;-74
2023/03/12 03:41:22;;;;;;;9.00;2.87;;;28.80;62.90;;;;;;5009398;28;20581;-72
2023/03/12 03:43:49;;;;;;;12.77;2.57;;;28.80;63.30;;;;;;5014636;28;20182;-77
2023/03/12 03:46:17;;;;;;;10.50;2.27;;;28.50;64.80;;;;;;4999899;28;20670;-74
2023/03/12 03:48:44;;;;;;;8.30;2.28;;;28.70;64.10;;;;;;5015427;28;20181;-74
2023/03/12 03:51:11;;;;;;;11.17;2.63;;;28.30;65.10;;;;;;4998120;28;20182;-67
2023/03/12 03:53:39;;;;;;;11.00;2.80;;;28.20;65.00;;;;;;4989282;28;20210;-65
2023/03/12 03:56:11;;;;;;;7.57;2.60;;;28.10;64.10;;;;;;4994639;28;20245;-67
2023/03/12 03:58:39;;;;;;;8.67;2.27;;;27.70;64.60;;;;;;4991992;28;20240;-74
2023/03/12 04:01:07;;;;;;;8.97;2.30;;;27.30;64.70;;;;;;4993035;28;20308;-76
2023/03/12 04:03:35;;;;;;;13.03;2.63;;;27.10;65.70;;;;;;4994282;28;20680;-68
2023/03/12 04:06:04;;;;;;;9.10;2.20;;;27.00;67.10;;;;;;4990901;28;20182;-72
2023/03/12 04:08:34;;;;;;;7.87;2.27;;;27.60;65.90;;;;;;4991230;28;20224;-73
2023/03/12 04:11:13;;;;;;;11.23;2.70;;;27.80;63.50;;;;;;4993411;28;20571;-70
2023/03/12 04:13:41;;;;;;;13.33;2.60;;;28.00;63.40;;;;;;4994074;28;20617;-69
2023/03/12 04:16:08;;;;;;;11.43;2.70;;;27.70;64.10;;;;;;4994270;28;20558;-65
2023/03/12 04:18:36;;;;;;;7.43;2.60;;;27.80;64.30;;;;;;4991540;28;20222;-67
2023/03/12 04:21:06;;;;;;;12.30;3.00;;;27.70;64.20;;;;;;4986601;28;20186;-67
2023/03/12 04:23:33;;;;;;;12.20;2.40;;;28.10;63.50;;;;;;4991181;28;20221;-66
2023/03/12 04:26:01;;;;;;;9.63;3.17;;;27.80;63.80;;;;;;4988002;28;20521;-68
2023/03/12 04:28:28;;;;;;;6.93;2.23;;;28.10;63.70;;;;;;5015245;28;20173;-75
2023/03/12 04:31:01;;;;;;;7.50;2.17;;;28.70;62.30;;;;;;5002570;28;20620;-71
2023/03/12 04:33:31;;;;;;;10.97;2.73;;;28.30;63.10;;;;;;4985585;28;20270;-80
2023/03/12 04:35:58;;;;;;;8.90;2.13;;;27.80;62.90;;;;;;4996711;28;20185;-67
2023/03/12 04:38:29;;;;;;;13.10;2.77;;;27.60;64.00;;;;;;4989223;28;20758;-75
2023/03/12 04:41:12;;;;;;;12.17;2.23;;;27.20;64.90;;;;;;4986741;28;20246;-71
2023/03/12 04:43:40;;;;;;;9.50;2.53;;;27.30;64.00;;;;;;4993774;28;20656;-72
2023/03/12 04:46:08;;;;;;;10.63;2.67;;;27.10;64.70;;;;;;4995091;28;20185;-74
2023/03/12 04:48:36;;;;;;;9.30;2.63;;;26.90;65.70;;;;;;4984981;28;20182;-77
2023/03/12 04:51:04;;;;;;;11.13;2.63;;;26.70;65.60;;;;;;4990088;28;20200;-74
2023/03/12 04:53:32;;;;;;;6.97;2.53;;;26.50;66.10;;;;;;4999268;28;20307;-70
2023/03/12 04:55:59;;;;;;;7.77;2.30;;;26.40;66.60;;;;;;4989623;28;20182;-74
2023/03/12 04:58:26;;;;;;;14.47;2.47;;;26.30;67.00;;;;;;4989475;28;20220;-75
2023/03/12 05:00:54;;;;;;;12.77;2.73;;;26.10;67.20;;;;;;4993948;28;20193;-74
2023/03/12 05:03:21;;;;;;;12.87;2.40;;;26.00;67.30;;;;;;4988234;28;20292;-71
2023/03/12 05:05:48;;;;;;;7.20;2.23;;;26.00;67.40;;;;;;4993240;28;20241;-74
2023/03/12 05:08:16;;;;;;;8.43;2.47;;;26.00;67.00;;;;;;4990578;28;20198;-73
2023/03/12 05:10:46;;;;;;;13.73;2.70;;;25.80;68.40;;;;;;4985193;28;20202;-71
2023/03/12 05:13:15;;;;;;;10.90;2.43;;;25.80;68.90;;;;;;4990871;28;20573;-74
2023/03/12 05:15:46;;;;;;;10.23;2.53;;;25.60;69.00;;;;;;4990890;28;20648;-66
2023/03/12 05:18:14;;;;;;;11.03;2.70;;;25.60;69.80;;;;;;4992990;28;20234;-67
2023/03/12 05:20:41;;;;;;;13.43;3.07;;;25.60;70.30;;;;;;4989503;28;20193;-65
2023/03/12 05:23:08;;;;;;;9.87;2.77;;;25.50;70.00;;;;;;4989049;28;20603;-66
2023/03/12 05:25:39;;;;;;;9.47;2.87;;;25.50;70.10;;;;;;4994933;28;20269;-68
2023/03/12 05:28:06;;;;;;;7.73;2.70;;;25.60;69.90;;;;;;4984258;28;20193;-72
2023/03/12 05:30:34;;;;;;;9.63;2.33;;;25.40;70.30;;;;;;4995144;28;20190;-69
2023/03/12 05:33:01;;;;;;;12.63;2.53;;;25.50;70.10;;;;;;4991451;28;20267;-70
2023/03/12 05:35:28;;;;;;;10.97;2.90;;;25.60;69.40;;;;;;4991740;28;20299;-75
2023/03/12 05:37:55;;;;;;;9.43;3.13;;;25.80;69.40;;;;;;4988313;28;20209;-68
2023/03/12 05:40:23;;;;;;;9.43;2.60;;;25.80;69.50;;;;;;4984765;28;20185;-73
2023/03/12 05:42:50;;;;;;;11.00;2.17;;;25.80;70.00;;;;;;4989596;28;20210;-71
2023/03/12 05:45:18;;;;;;;12.40;2.73;;;25.50;70.20;;;;;;4988816;28;20290;-74
2023/03/12 05:47:46;;;;;;;13.23;2.33;;;25.50;70.70;;;;;;4987137;28;20201;-79
2023/03/12 05:50:15;;;;;;;17.00;2.97;;;25.30;70.30;;;;;;4987395;28;20197;-71
2023/03/12 05:52:42;;;;;;;11.07;2.87;;;25.30;70.00;;;;;;4990436;28;20185;-67
2023/03/12 05:55:10;;;;;;;11.23;2.50;;;25.30;70.20;;;;;;4989821;28;20182;-72
2023/03/12 05:57:37;;;;;;;11.67;2.97;;;25.30;70.20;;;;;;4993423;28;20192;-67
2023/03/12 06:00:06;;;;;;;9.50;2.73;;;25.10;70.50;;;;;;4986946;28;20198;-64
2023/03/12 06:02:33;;;;;;;12.40;2.50;;;24.90;69.60;;;;;;4994465;28;20181;-70
2023/03/12 06:05:00;;;;;;;8.73;2.30;;;24.90;70.10;;;;;;4987046;28;20656;-70
2023/03/12 06:07:28;;;;;;;9.50;2.30;;;24.90;70.40;;;;;;4969126;28;20252;-64
2023/03/12 06:09:55;;;;;;;10.47;2.70;;;24.80;70.70;;;;;;4994596;28;20192;-63
2023/03/12 06:12:22;;;;;;;6.73;2.50;;;24.80;71.10;;;;;;4987504;28;20229;-65
2023/03/12 06:14:49;;;;;;;13.03;2.73;;;24.90;71.00;;;;;;4979395;28;20657;-64
2023/03/12 06:17:17;;;;;;;13.80;2.83;;;24.90;71.50;;;;;;4986200;28;20182;-65
2023/03/12 06:19:44;;;;;;;9.53;2.90;;;24.80;71.80;;;;;;4992825;28;20852;-64
2023/03/12 06:22:11;;;;;;;10.97;2.30;;;24.90;72.00;;;;;;4986185;28;20194;-66
2023/03/12 06:24:41;;;;;;;13.43;2.63;;;24.80;71.70;;;;;;4987715;28;20190;-64
2023/03/12 06:27:08;;;;;;;9.63;2.77;;;24.80;71.00;;;;;;4971755;28;20550;-65
2023/03/12 06:29:35;;;;;;;9.87;2.40;;;24.80;70.80;;;;;;4985465;28;20190;-63
2023/03/12 06:32:03;;;;;;;8.90;3.00;;;24.80;70.60;;;;;;4986665;28;20232;-65
2023/03/12 06:34:30;;;;;;;13.67;3.10;;;25.00;71.00;;;;;;4997915;28;20192;-64
2023/03/12 06:36:57;;;;;;;13.13;3.20;;;25.00;71.00;;;;;;4987509;28;20186;-64
2023/03/12 06:39:25;;;;;;;9.33;2.63;;;25.10;70.50;;;;;;4990218;28;20225;-68
2023/03/12 06:41:52;;;;;;;14.10;2.97;;;25.00;69.20;;;;;;4987354;28;20192;-65
2023/03/12 06:44:20;;;;;;;8.97;2.63;;;24.90;70.50;;;;;;4990740;28;20512;-63
2023/03/12 06:46:47;;;;;;;9.97;2.90;;;24.80;71.10;;;;;;4995415;28;20209;-64
2023/03/12 06:49:15;;;;;;;13.93;2.53;;;24.70;71.60;;;;;;4990006;28;20190;-66
2023/03/12 06:51:42;;;;;;;15.93;2.80;;;24.70;72.40;;;;;;4987602;28;20190;-66
2023/03/12 06:54:09;;;;;;;13.57;3.50;;;24.60;72.60;;;;;;4992213;28;20269;-69
2023/03/12 06:56:37;;;;;;;13.73;2.97;;;24.70;72.40;;;;;;4980847;28;20187;-67
2023/03/12 06:59:04;;;;;;;12.87;3.00;;;24.70;72.60;;;;;;4980772;28;20300;-66
2023/03/12 07:01:32;;;;;;;13.97;2.90;;;24.60;72.60;;;;;;4987304;28;20175;-65
2023/03/12 07:03:59;;;;;;;13.70;2.60;;;24.50;72.80;;;;;;4985151;28;20276;-68
2023/03/12 07:06:27;;;;;;;11.03;3.07;;;24.50;73.50;;;;;;5011103;28;20224;-72
2023/03/12 07:08:54;;;;;;;12.13;3.07;;;24.40;73.80;;;;;;4991813;28;20273;-71
2023/03/12 07:11:21;;;;;;;11.57;2.97;;;24.40;73.90;;;;;;4986953;28;20216;-73
2023/03/12 07:13:50;;;;;;;12.63;3.03;;;24.40;74.00;;;;;;4989649;28;20624;-70
2023/03/12 07:16:17;;;;;;;12.37;3.40;;;24.40;73.80;;;;;;4994158;28;20330;-69
2023/03/12 07:18:45;;;;;;;10.77;3.33;;;24.40;73.90;;;;;;4986933;28;20222;-75
2023/03/12 07:21:12;;;;;;;11.17;3.10;;;24.30;74.00;;;;;;4993354;28;20615;-73
2023/03/12 07:23:40;;;;;;;12.27;3.40;;;24.30;74.10;;;;;;5004487;28;20186;-77
2023/03/12 07:26:07;;;;;;;12.17;3.27;;;24.30;74.10;;;;;;5000450;28;20189;-75
2023/03/12 07:28:34;;;;;;;16.27;2.80;;;24.30;74.20;;;;;;5006960;28;20252;-76
2023/03/12 07:31:03;;;;;;;14.17;3.20;;;24.30;74.10;;;;;;4989172;28;20189;-74
2023/03/12 07:33:30;;;;;;;9.80;2.83;;;24.30;74.00;;;;;;5005794;28;20188;-74
2023/03/12 07:35:58;;;;;;;13.53;3.30;;;24.30;73.80;;;;;;5011261;28;20184;-69
2023/03/12 07:38:26;;;;;;;14.30;2.80;;;24.30;73.60;;;;;;4990849;28;20703;-66
2023/03/12 07:40:55;;;;;;;11.33;3.97;;;24.20;73.60;;;;;;4987401;28;20197;-68
2023/03/12 07:43:23;;;;;;;10.57;3.40;;;24.20;73.80;;;;;;4995474;28;20198;-66
2023/03/12 07:45:54;;;;;;;15.17;3.03;;;24.20;73.40;;;;;;4979217;28;20179;-65
2023/03/12 07:48:21;;;;;;;10.87;3.07;;;24.10;73.40;;;;;;4994356;28;20195;-65
2023/03/12 07:50:49;;;;;;;11.83;3.03;;;24.10;73.50;;;;;;5004993;28;20169;-66
2023/03/12 07:53:17;;;;;;;16.13;3.40;;;24.10;73.50;;;;;;4997515;28;20194;-67
2023/03/12 07:55:46;;;;;;;14.43;3.30;;;24.10;73.10;;;;;;4995243;28;20178;-64
2023/03/12 07:58:14;;;;;;;15.53;3.10;;;24.00;72.60;;;;;;4994931;28;20213;-68
2023/03/12 08:00:41;;;;;;;12.43;2.83;;;24.00;72.70;;;;;;4997840;28;20185;-66
2023/03/12 08:03:09;;;;;;;9.73;2.77;;;24.00;72.90;;;;;;5003076;28;20181;-64
2023/03/12 08:05:36;;;;;;;8.70;2.83;;;24.00;72.60;;;;;;4998005;28;20197;-67
2023/03/12 08:08:04;;;;;;;11.07;3.30;;;24.00;72.70;;;;;;4994955;28;20288;-66
2023/03/12 08:10:31;;;;;;;11.63;2.87;;;24.00;73.00;;;;;;4992802;28;20189;-74
2023/03/12 08:12:58;;;;;;;13.57;3.27;;;24.00;73.20;;;;;;4994747;28;20234;-72
2023/03/12 08:15:26;;;;;;;9.23;3.00;;;23.90;73.30;;;;;;4994336;28;20186;-69
2023/03/12 08:17:53;;;;;;;10.80;3.37;;;23.90;73.40;;;;;;4994933;28;20198;-66
2023/03/12 08:20:20;;;;;;;7.93;3.10;;;24.00;73.80;;;;;;4994421;28;20277;-66
2023/03/12 08:22:48;;;;;;;11.87;3.33;;;23.80;74.00;;;;;;4993351;28;20166;-66
2023/03/12 08:25:17;;;;;;;11.80;3.23;;;23.80;74.10;;;;;;4992843;28;20193;-74
2023/03/12 08:27:44;;;;;;;11.30;3.63;;;23.80;73.90;;;;;;4993582;28;20182;-70
2023/03/12 08:30:12;;;;;;;10.13;3.00;;;23.70;73.60;;;;;;4995873;28;20603;-74
2023/03/12 08:32:41;;;;;;;9.10;3.23;;;23.70;73.70;;;;;;4995764;28;20174;-66
2023/03/12 08:35:09;;;;;;;11.30;3.50;;;23.70;73.80;;;;;;4994697;28;20273;-72
2023/03/12 08:37:37;;;;;;;10.73;3.70;;;23.70;74.00;;;;;;4995617;28;20174;-71
2023/03/12 08:40:22;;;;;;;11.47;3.00;;;23.70;74.20;;;;;;4992365;28;20566;-71
2023/03/12 08:42:49;;;;;;;13.63;3.27;;;23.60;74.60;;;;;;4991200;28;20553;-73
2023/03/12 08:45:17;;;;;;;10.73;3.07;;;23.70;74.80;;;;;;4993324;28;20612;-73
2023/03/12 08:47:44;;;;;;;10.27;3.27;;;23.70;75.00;;;;;;4994790;28;20178;-75
2023/03/12 08:50:15;;;;;;;9.77;3.10;;;23.60;75.20;;;;;;4994481;28;20190;-74
2023/03/12 08:52:43;;;;;;;9.57;3.37;;;23.60;75.20;;;;;;4994288;28;20276;-74
2023/03/12 08:55:12;;;;;;;7.20;3.17;;;23.50;75.30;;;;;;4994688;28;20209;-73
2023/03/12 08:57:42;;;;;;;14.53;3.33;;;23.50;75.60;;;;;;4996426;28;20190;-69
2023/03/12 09:00:13;;;;;;;12.77;3.50;;;23.50;75.60;;;;;;5001417;28;20196;-66
2023/03/12 09:02:44;;;;;;;13.00;3.43;;;23.50;75.50;;;;;;4999628;28;20261;-67
2023/03/12 09:05:12;;;;;;;10.90;3.27;;;23.50;75.40;;;;;;4998171;28;20545;-67
2023/03/12 09:07:40;;;;;;;15.30;3.80;;;23.50;74.90;;;;;;5000698;28;20248;-67
2023/03/12 09:10:08;;;;;;;13.90;3.30;;;23.40;75.10;;;;;;5000234;28;20186;-66
2023/03/12 09:12:37;;;;;;;15.50;3.40;;;23.30;74.90;;;;;;4996734;28;20249;-65
2023/03/12 09:15:04;;;;;;;12.87;2.97;;;23.30;75.00;;;;;;5002810;28;20193;-66
2023/03/12 09:17:32;;;;;;;15.50;3.07;;;23.30;75.00;;;;;;5001274;28;20185;-67
2023/03/12 09:19:59;;;;;;;11.90;3.40;;;23.30;74.80;;;;;;4999999;28;20328;-72
2023/03/12 09:22:29;;;;;;;11.20;3.27;;;23.20;75.00;;;;;;4999811;28;20190;-71
2023/03/12 09:24:56;;;;;;;11.90;3.57;;;23.30;75.00;;;;;;4998223;28;20182;-69
2023/03/12 09:27:23;;;;;;;19.43;3.70;;;23.20;75.00;;;;;;4997508;28;20174;-69
2023/03/12 09:29:53;;;;;;;7.80;2.80;;;23.20;74.90;;;;;;4996927;28;20205;-72
2023/03/12 09:32:20;;;;;;;9.80;3.43;;;23.20;74.90;;;;;;4994470;28;20245;-74
2023/03/12 09:34:48;;;;;;;15.70;4.00;;;23.20;74.90;;;;;;4992414;28;20190;-75
2023/03/12 09:37:15;;;;;;;12.00;3.03;;;23.10;74.70;;;;;;4991584;28;20186;-65
2023/03/12 09:39:42;;;;;;;13.83;3.40;;;23.10;74.40;;;;;;4971313;28;20229;-65
2023/03/12 09:42:26;;;;;;;7.70;3.00;;;23.10;74.00;;;;;;4993499;28;20190;-68
2023/03/12 09:44:56;;;;;;;7.87;3.43;;;23.10;73.50;;;;;;4993245;28;20186;-64
2023/03/12 09:47:49;;;;;;;14.70;3.37;;;23.00;73.10;;;;;;4991416;28;20178;-71
2023/03/12 09:50:26;;;;;;;17.43;3.83;;;23.00;73.20;;;;;;4986287;28;20213;-73
2023/03/12 09:53:14;;;;;;;11.77;2.83;;;23.00;72.80;;;;;;4988217;28;20182;-68
2023/03/12 09:55:44;;;;;;;14.40;3.30;;;23.00;72.40;;;;;;4988088;28;20252;-70
2023/03/12 09:58:22;;;;;;;10.60;3.23;;;23.10;72.40;;;;;;4980857;28;20202;-79
2023/03/12 10:00:50;;;;;;;7.93;3.23;;;23.00;72.20;;;;;;4992207;28;21444;-75
2023/03/12 10:03:45;;;;;;;11.13;3.37;;;23.10;72.30;;;;;;4991749;28;20547;-73
2023/03/12 10:06:21;;;;;;;15.73;3.23;;;23.00;72.40;;;;;;4992145;28;20277;-72
2023/03/12 10:09:01;;;;;;;9.80;3.57;;;23.10;72.30;;;;;;4991281;28;20244;-76
2023/03/12 10:11:54;;;;;;;14.50;3.87;;;23.10;72.40;;;;;;4990991;28;20269;-72
2023/03/12 10:14:32;;;;;;;12.73;3.50;;;23.00;71.90;;;;;;4993088;28;20672;-72
2023/03/12 10:17:14;;;;;;;10.23;3.07;;;23.00;71.30;;;;;;4992698;28;20177;-73
2023/03/12 10:20:16;;;;;;;10.00;3.27;;;23.00;71.10;;;;;;4990609;28;20221;-73
2023/03/12 10:22:59;;;;;;;12.17;3.47;;;23.00;71.10;;;;;;4992597;28;20645;-76
2023/03/12 10:25:41;;;;;;;11.97;3.60;;;22.90;70.70;;;;;;4987310;28;20218;-72
2023/03/12 10:28:19;;;;;;;8.33;3.03;;;22.90;70.80;;;;;;4988844;28;20220;-71
2023/03/12 10:31:01;;;;;;;14.50;3.53;;;23.00;70.90;;;;;;4986975;28;20252;-68
2023/03/12 10:33:53;;;;;;;12.23;3.37;;;22.90;71.20;;;;;;4991016;28;20209;-65
2023/03/12 10:36:28;;;;;;;9.27;3.60;;;22.90;71.20;;;;;;4991197;28;20664;-66
2023/03/12 10:38:56;;;;;;;11.00;2.83;;;22.90;71.20;;;;;;4990549;28;20247;-66
2023/03/12 10:41:27;;;;;;;10.13;3.30;;;22.90;71.10;;;;;;4990864;28;20193;-64
2023/03/12 10:43:58;;;;;;;11.83;3.37;;;22.90;71.00;;;;;;4989915;28;20785;-67
2023/03/12 10:47:01;;;;;;;11.77;3.40;;;22.80;71.30;;;;;;4991662;28;20221;-70
2023/03/12 10:49:32;;;;;;;10.17;3.33;;;22.80;71.60;;;;;;4988713;28;20202;-65
2023/03/12 10:52:01;;;;;;;14.60;3.77;;;22.80;71.60;;;;;;4993248;28;20185;-65
2023/03/12 10:54:42;;;;;;;11.27;3.60;;;22.80;71.50;;;;;;4993926;28;20201;-65
2023/03/12 10:57:10;;;;;;;13.40;3.70;;;22.80;71.60;;;;;;4973886;28;20185;-67
2023/03/12 10:59:43;;;;;;;14.13;3.60;;;22.80;71.50;;;;;;4993538;28;20221;-65
2023/03/12 11:02:39;;;;;;;10.27;3.30;;;22.80;71.60;;;;;;4994885;28;20603;-67
2023/03/12 11:05:21;;;;;;;14.83;3.70;;;22.80;71.60;;;;;;4996080;28;20739;-69
2023/03/12 11:07:49;;;;;;;9.40;3.23;;;22.80;71.40;;;;;;4993329;28;20185;-69
2023/03/12 11:10:26;;;;;;;8.80;3.70;;;22.80;71.30;;;;;;4992611;28;20225;-65
2023/03/12 11:12:58;;;;;;;10.80;3.53;;;22.80;70.90;;;;;;4992989;28;20217;-72
2023/03/12 11:15:43;;;;;;;7.53;3.03;;;22.80;70.40;;;;;;4994090;28;20190;-71
2023/03/12 11:18:28;;;;;;;6.93;3.13;;;22.80;70.10;;;;;;4995707;28;20348;-66
2023/03/12 11:20:57;;;;;;;13.27;3.03;;;22.80;70.20;;;;;;4979030;28;20543;-66
2023/03/12 11:23:28;;;;;;;9.37;3.27;;;22.80;70.40;;;;;;4991282;28;20201;-69
2023/03/12 11:26:03;;;;;;;13.37;3.20;;;22.80;70.40;;;;;;4993195;28;20178;-74
2023/03/12 11:28:39;;;;;;;10.70;3.10;;;22.80;70.40;;;;;;4994495;28;20346;-69
2023/03/12 11:31:18;;;;;;;14.47;3.20;;;22.80;70.40;;;;;;4995631;28;20185;-67
2023/03/12 11:33:45;;;;;;;12.63;3.40;;;22.80;70.60;;;;;;4986846;28;20189;-68
2023/03/12 11:36:22;;;;;;;11.97;2.93;;;22.80;70.70;;;;;;4995914;28;20552;-71
2023/03/12 11:39:22;;;;;;;16.50;3.47;;;22.80;71.30;;;;;;4996938;28;20260;-69
2023/03/12 11:42:09;;;;;;;8.97;3.00;;;22.80;71.40;;;;;;4983611;28;20202;-69
2023/03/12 11:45:09;;;;;;;7.60;3.10;;;22.80;71.40;;;;;;4996744;28;20181;-71
2023/03/12 11:47:41;;;;;;;7.43;3.03;;;22.80;71.40;;;;;;5015067;28;20185;-72
2023/03/12 11:50:24;;;;;;;8.23;3.13;;;22.80;71.40;;;;;;5015013;28;20220;-72
2023/03/12 11:53:05;;;;;;;14.67;3.30;;;22.80;71.30;;;;;;5015275;28;20247;-75
2023/03/12 11:55:35;;;;;;;13.90;3.23;;;22.80;71.50;;;;;;4997435;28;20583;-77
2023/03/12 11:58:32;;;;;;;7.80;2.87;;;22.80;71.60;;;;;;5015125;28;20576;-72
2023/03/12 12:01:40;;;;;;;12.97;3.27;;;22.80;71.90;;;;;;4998314;28;20181;-75
2023/03/12 12:04:26;;;;;;;8.57;3.00;;;22.80;71.60;;;;;;5010200;28;20243;-76
2023/03/12 12:06:58;;;;;;;9.80;3.20;;;22.80;71.70;;;;;;5015341;28;20243;-76
2023/03/12 12:09:36;;;;;;;8.00;3.37;;;22.80;72.00;;;;;;5008812;28;20264;-71
2023/03/12 12:12:06;;;;;;;9.97;3.63;;;22.80;72.00;;;;;;5014321;28;20231;-77
2023/03/12 12:14:51;;;;;;;9.97;3.03;;;22.70;72.10;;;;;;5014958;28;20268;-75
2023/03/12 12:17:53;;;;;;;12.47;2.97;;;22.70;72.20;;;;;;5009054;28;20186;-74
2023/03/12 12:20:21;;;;;;;9.93;3.17;;;22.70;72.20;;;;;;5014084;28;20283;-75
2023/03/12 12:23:20;;;;;;;11.83;3.10;;;22.80;72.20;;;;;;5014550;28;20181;-66
2023/03/12 12:26:10;;;;;;;8.83;2.80;;;22.70;72.30;;;;;;4994020;28;20197;-67
2023/03/12 12:28:40;;;;;;;10.83;3.37;;;22.80;72.50;;;;;;5013894;28;20181;-68
2023/03/12 12:31:39;;;;;;;10.77;3.33;;;22.70;72.20;;;;;;5014302;28;20189;-74
2023/03/12 12:34:31;;;;;;;15.50;3.00;;;22.70;72.30;;;;;;4983890;28;20617;-73
2023/03/12 12:37:35;;;;;;;8.03;3.00;;;22.70;72.00;;;;;;5001150;28;20235;-65
2023/03/12 12:40:22;;;;;;;10.23;2.83;;;22.70;72.00;;;;;;5013329;28;20304;-68
2023/03/12 12:42:59;;;;;;;9.20;3.23;;;22.70;72.10;;;;;;5005500;28;20200;-68
2023/03/12 12:45:28;;;;;;;9.77;2.63;;;22.70;72.30;;;;;;5013731;28;20187;-66
2023/03/12 12:48:26;;;;;;;12.00;2.73;;;22.70;72.30;;;;;;5013646;28;20169;-66
2023/03/12 12:50:58;;;;;;;9.37;3.13;;;22.70;72.40;;;;;;5003835;28;20186;-66
2023/03/12 12:53:48;;;;;;;11.93;3.30;;;22.70;72.60;;;;;;5004331;28;20240;-67
2023/03/12 12:56:54;;;;;;;15.47;3.43;;;22.60;72.60;;;;;;5011946;28;20264;-67
2023/03/12 12:59:33;;;;;;;11.30;3.07;;;22.60;72.20;;;;;;4981197;28;20217;-70
2023/03/12 13:02:03;;;;;;;13.33;2.80;;;22.60;71.10;;;;;;5007199;28;20515;-71
2023/03/12 13:04:39;;;;;;;9.50;2.87;;;22.60;70.70;;;;;;5007311;28;20606;-71